createdAt,value
2023-01-19T00:02:06.411Z,21.18
2023-01-19T00:04:36.110Z,21.17
2023-01-19T00:07:09.323Z,21.19
2023-01-19T00:09:39.281Z,21.18
2023-01-19T00:12:07.460Z,21.21
2023-01-19T00:14:37.835Z,21.18
2023-01-19T00:17:13.212Z,21.17
2023-01-19T00:19:41.271Z,21.18
2023-01-19T00:22:12.077Z,21.16
2023-01-19T00:24:47.022Z,21.17
2023-01-19T00:27:14.103Z,21.16
2023-01-19T00:29:44.663Z,21.16
2023-01-19T00:32:17.417Z,21.16
2023-01-19T00:34:50.448Z,21.17
2023-01-19T00:37:24.687Z,21.16
2023-01-19T00:39:51.817Z,21.18
2023-01-19T00:42:21.599Z,21.18
2023-01-19T00:44:54.611Z,21.16
2023-01-19T00:47:25.106Z,21.16
2023-01-19T00:49:59.306Z,21.17
2023-01-19T00:52:27.217Z,21.16
2023-01-19T00:55:03.414Z,21.07
2023-01-19T00:57:33.813Z,21.11
2023-01-19T01:00:06.021Z,21.11
2023-01-19T01:02:39.554Z,21.06
2023-01-19T01:05:07.848Z,21.06
2023-01-19T01:07:39.727Z,21.04
2023-01-19T01:10:28.759Z,21.04
2023-01-19T01:13:22.336Z,21.02
2023-01-19T01:15:51.454Z,20.99
2023-01-19T01:18:22.186Z,20.96
2023-01-19T01:20:54.508Z,20.93
2023-01-19T01:23:22.383Z,20.93
2023-01-19T01:25:49.850Z,20.91
2023-01-19T01:28:23.386Z,20.86
2023-01-19T01:30:57.991Z,20.86
2023-01-19T01:33:41.026Z,20.82
2023-01-19T01:36:11.302Z,20.80
2023-01-19T01:38:45.039Z,20.78
2023-01-19T01:41:13.022Z,20.76
2023-01-19T01:43:48.958Z,20.74
2023-01-19T01:46:22.474Z,20.73
2023-01-19T01:49:16.851Z,20.69
2023-01-19T01:51:49.167Z,20.68
2023-01-19T01:54:35.878Z,20.67
2023-01-19T01:57:07.315Z,20.64
2023-01-19T01:59:45.431Z,20.63
2023-01-19T02:02:19.332Z,20.61
2023-01-19T02:04:56.600Z,20.61
2023-01-19T02:07:46.596Z,20.58
2023-01-19T02:10:19.489Z,20.57
2023-01-19T02:12:49.273Z,20.54
2023-01-19T02:15:24.084Z,20.54
2023-01-19T02:17:53.792Z,20.53
2023-01-19T02:20:25.850Z,20.52
2023-01-19T02:23:03.861Z,20.51
2023-01-19T02:25:37.600Z,20.47
2023-01-19T02:28:08.871Z,20.47
2023-01-19T02:30:44.444Z,20.46
2023-01-19T02:33:14.473Z,20.44
2023-01-19T02:35:52.668Z,20.45
2023-01-19T02:38:26.750Z,20.43
2023-01-19T02:41:03.823Z,20.44
2023-01-19T02:43:31.330Z,20.42
2023-01-19T02:45:58.507Z,20.39
2023-01-19T02:48:28.855Z,20.37
2023-01-19T02:51:14.776Z,20.34
2023-01-19T02:54:05.617Z,20.32
2023-01-19T02:56:52.093Z,20.30
2023-01-19T02:59:50.046Z,20.30
2023-01-19T03:02:56.594Z,20.28
2023-01-19T03:05:53.791Z,20.26
2023-01-19T03:08:45.488Z,20.25
2023-01-19T03:11:17.786Z,20.24
2023-01-19T03:14:01.981Z,20.23
2023-01-19T03:16:51.772Z,20.21
2023-01-19T03:19:34.906Z,20.18
2023-01-19T03:22:29.632Z,20.17
2023-01-19T03:25:01.940Z,20.17
2023-01-19T03:27:33.934Z,20.14
2023-01-19T03:30:06.489Z,20.13
2023-01-19T03:32:39.659Z,20.13
2023-01-19T03:35:13.237Z,20.11
2023-01-19T03:37:45.606Z,20.10
2023-01-19T03:40:13.304Z,20.08
2023-01-19T03:42:44.594Z,20.08
2023-01-19T03:45:19.272Z,20.07
2023-01-19T03:47:55.646Z,20.07
2023-01-19T03:50:31.444Z,20.05
2023-01-19T03:53:12.551Z,20.04
2023-01-19T03:55:49.048Z,20.02
2023-01-19T03:58:19.231Z,20.03
2023-01-19T04:00:46.952Z,20.02
2023-01-19T04:03:21.204Z,20.02
2023-01-19T04:05:51.338Z,20.00
2023-01-19T04:08:21.159Z,19.99
2023-01-19T04:10:57.529Z,19.99
2023-01-19T04:13:30.567Z,19.97
2023-01-19T04:16:07.171Z,19.96
2023-01-19T04:18:37.865Z,19.97
2023-01-19T04:21:12.391Z,19.96
2023-01-19T04:23:42.652Z,19.95
2023-01-19T04:26:10.205Z,19.94
2023-01-19T04:28:43.485Z,19.92
2023-01-19T04:31:11.149Z,19.92
2023-01-19T04:33:45.106Z,19.90
2023-01-19T04:36:19.001Z,19.90
2023-01-19T04:38:50.787Z,19.89
2023-01-19T04:41:27.399Z,19.89
2023-01-19T04:44:01.358Z,19.85
2023-01-19T04:46:29.203Z,19.86
2023-01-19T04:48:56.296Z,19.85
2023-01-19T04:51:30.036Z,19.85
2023-01-19T04:54:00.209Z,19.84
2023-01-19T04:56:36.809Z,19.84
2023-01-19T04:59:03.870Z,19.82
2023-01-19T05:01:35.195Z,19.82
2023-01-19T05:04:09.139Z,19.81
2023-01-19T05:06:36.306Z,19.80
2023-01-19T05:09:09.479Z,19.79
2023-01-19T05:11:36.903Z,19.78
2023-01-19T05:14:07.938Z,19.77
2023-01-19T05:16:38.672Z,19.78
2023-01-19T05:19:05.730Z,19.77
2023-01-19T05:21:32.850Z,19.78
2023-01-19T05:24:03.131Z,19.78
2023-01-19T05:26:30.223Z,19.80
2023-01-19T05:29:03.925Z,19.81
2023-01-19T05:31:31.741Z,19.81
2023-01-19T05:34:05.641Z,19.83
2023-01-19T05:36:33.255Z,19.84
2023-01-19T05:39:00.347Z,19.85
2023-01-19T05:41:27.466Z,19.86
2023-01-19T05:44:03.875Z,19.87
2023-01-19T05:46:33.894Z,19.87
2023-01-19T05:49:05.910Z,19.86
2023-01-19T05:51:39.676Z,19.86
2023-01-19T05:54:12.823Z,19.86
2023-01-19T05:56:42.859Z,19.86
2023-01-19T05:59:13.462Z,19.87
2023-01-19T06:01:44.172Z,19.88
2023-01-19T06:04:11.508Z,19.89
2023-01-19T06:06:38.899Z,19.88
2023-01-19T06:09:09.312Z,19.89
2023-01-19T06:11:39.794Z,19.89
2023-01-19T06:14:15.590Z,19.85
2023-01-19T06:16:47.515Z,19.79
2023-01-19T06:19:17.672Z,19.75
2023-01-19T06:21:45.314Z,19.72
2023-01-19T06:24:19.883Z,19.76
2023-01-19T06:26:49.897Z,19.79
2023-01-19T06:29:21.509Z,19.84
2023-01-19T06:31:55.071Z,19.87
2023-01-19T06:34:22.437Z,19.90
2023-01-19T06:36:52.863Z,19.93
2023-01-19T06:39:19.648Z,19.96
2023-01-19T06:41:48.669Z,19.99
2023-01-19T06:44:15.602Z,20.00
2023-01-19T06:46:49.772Z,20.04
2023-01-19T06:49:19.832Z,20.06
2023-01-19T06:51:46.543Z,20.09
2023-01-19T06:54:16.377Z,20.10
2023-01-19T06:56:46.039Z,20.13
2023-01-19T06:59:16.086Z,20.16
2023-01-19T07:01:46.978Z,20.18
2023-01-19T07:04:14.089Z,20.19
2023-01-19T07:06:50.563Z,20.21
2023-01-19T07:09:20.666Z,20.19
2023-01-19T07:11:50.051Z,20.18
2023-01-19T07:14:16.952Z,20.17
2023-01-19T07:16:52.068Z,20.16
2023-01-19T07:19:19.042Z,20.15
2023-01-19T07:21:48.984Z,20.17
2023-01-19T07:24:18.810Z,20.18
2023-01-19T07:26:45.690Z,20.19
2023-01-19T07:29:19.076Z,20.21
2023-01-19T07:31:46.194Z,20.23
2023-01-19T07:34:14.682Z,20.25
2023-01-19T07:36:41.971Z,20.27
2023-01-19T07:39:12.506Z,20.30
2023-01-19T07:41:51.469Z,20.31
2023-01-19T07:44:26.598Z,20.34
2023-01-19T07:46:57.056Z,20.35
2023-01-19T07:49:24.998Z,20.37
2023-01-19T07:51:55.459Z,20.39
2023-01-19T07:54:31.634Z,20.39
2023-01-19T07:56:59.014Z,20.41
2023-01-19T07:59:31.836Z,20.42
2023-01-19T08:01:59.636Z,20.42
2023-01-19T08:04:33.293Z,20.43
2023-01-19T08:07:02.661Z,20.40
2023-01-19T08:09:30.126Z,20.33
2023-01-19T08:12:00.127Z,20.30
2023-01-19T08:14:27.594Z,20.27
2023-01-19T08:17:04.259Z,20.27
2023-01-19T08:19:32.769Z,20.27
2023-01-19T08:22:03.324Z,20.28
2023-01-19T08:24:33.765Z,20.29
2023-01-19T08:27:10.128Z,20.30
2023-01-19T08:29:43.672Z,20.32
2023-01-19T08:32:20.037Z,20.33
2023-01-19T08:34:47.173Z,20.30
2023-01-19T08:37:20.263Z,20.28
2023-01-19T08:39:49.415Z,20.29
2023-01-19T08:42:22.396Z,20.30
2023-01-19T08:44:58.137Z,20.33
2023-01-19T08:47:29.601Z,20.35
2023-01-19T08:49:59.053Z,20.37
2023-01-19T08:52:30.549Z,20.38
2023-01-19T08:55:01.365Z,20.40
2023-01-19T08:57:31.192Z,20.42
2023-01-19T09:00:01.375Z,20.43
2023-01-19T09:02:32.558Z,20.45
2023-01-19T09:05:06.287Z,20.46
2023-01-19T09:07:36.699Z,20.47
2023-01-19T09:10:05.447Z,20.48
2023-01-19T09:12:33.386Z,20.49
2023-01-19T09:15:05.958Z,20.51
2023-01-19T09:17:39.433Z,20.53
2023-01-19T09:20:12.339Z,20.52
2023-01-19T09:22:42.890Z,20.52
2023-01-19T09:25:12.736Z,20.52
2023-01-19T09:27:45.103Z,20.53
2023-01-19T09:30:16.239Z,20.54
2023-01-19T09:32:50.068Z,20.54
2023-01-19T09:35:20.857Z,20.54
2023-01-19T09:37:51.646Z,20.56
2023-01-19T09:40:24.485Z,20.56
2023-01-19T09:43:11.947Z,20.56
2023-01-19T09:45:53.268Z,20.55
2023-01-19T09:48:33.062Z,20.55
2023-01-19T09:51:04.440Z,20.54
2023-01-19T09:53:50.209Z,20.55
2023-01-19T09:56:24.298Z,20.56
2023-01-19T09:58:54.603Z,20.56
2023-01-19T10:01:30.290Z,20.57
2023-01-19T10:04:09.013Z,20.57
2023-01-19T10:06:42.553Z,20.58
2023-01-19T10:09:24.813Z,20.61
2023-01-19T10:12:35.756Z,20.63
2023-01-19T10:15:14.479Z,20.65
2023-01-19T10:18:03.299Z,20.69
2023-01-19T10:20:46.445Z,20.70
2023-01-19T10:23:43.919Z,20.73
2023-01-19T10:26:24.631Z,20.76
2023-01-19T10:29:16.464Z,20.76
2023-01-19T10:31:46.455Z,20.76
2023-01-19T10:34:19.799Z,20.76
2023-01-19T10:37:05.587Z,20.74
2023-01-19T10:39:39.779Z,20.66
2023-01-19T10:42:20.863Z,20.68
2023-01-19T10:44:51.017Z,20.70
2023-01-19T10:47:37.495Z,20.72
2023-01-19T10:50:29.247Z,20.75
2023-01-19T10:53:05.192Z,20.80
2023-01-19T10:55:34.878Z,20.83
2023-01-19T10:58:29.515Z,20.85
2023-01-19T11:01:14.385Z,20.86
2023-01-19T11:03:45.568Z,20.88
2023-01-19T11:06:22.450Z,20.88
2023-01-19T11:09:09.432Z,20.88
2023-01-19T11:11:48.102Z,20.88
2023-01-19T11:14:22.034Z,20.87
2023-01-19T11:16:55.558Z,20.87
2023-01-19T11:19:29.673Z,20.87
2023-01-19T11:22:18.139Z,20.84
2023-01-19T11:24:50.829Z,20.83
2023-01-19T11:27:21.511Z,20.83
2023-01-19T11:30:06.577Z,20.81
2023-01-19T11:32:43.123Z,20.80
2023-01-19T11:35:40.244Z,20.78
2023-01-19T11:38:25.001Z,20.77
2023-01-19T11:41:01.266Z,20.77
2023-01-19T11:43:43.550Z,20.74
2023-01-19T11:46:16.751Z,20.74
2023-01-19T11:48:50.007Z,20.72
2023-01-19T11:51:23.630Z,20.72
2023-01-19T11:53:56.940Z,20.73
2023-01-19T11:56:31.558Z,20.73
2023-01-19T11:59:01.852Z,20.71
2023-01-19T12:01:34.823Z,20.71
2023-01-19T12:04:16.255Z,20.68
2023-01-19T12:06:55.866Z,20.69
2023-01-19T12:09:37.025Z,20.69
2023-01-19T12:12:25.875Z,20.68
2023-01-19T12:15:15.173Z,20.67
2023-01-19T12:17:51.198Z,20.66
2023-01-19T12:20:32.252Z,20.62
2023-01-19T12:23:25.246Z,20.62
2023-01-19T12:26:24.934Z,20.62
2023-01-19T12:29:00.094Z,20.62
2023-01-19T12:31:28.243Z,20.59
2023-01-19T12:33:58.636Z,20.59
2023-01-19T12:36:40.705Z,20.58
2023-01-19T12:39:22.925Z,20.58
2023-01-19T12:42:17.041Z,20.57
2023-01-19T12:44:50.044Z,20.58
2023-01-19T12:47:24.588Z,20.59
2023-01-19T12:50:00.256Z,20.58
2023-01-19T12:52:46.276Z,20.59
2023-01-19T12:55:18.210Z,20.58
2023-01-19T12:58:12.522Z,20.56
2023-01-19T13:01:14.174Z,20.57
2023-01-19T13:03:58.803Z,20.55
2023-01-19T13:06:58.380Z,20.56
2023-01-19T13:09:38.384Z,20.54
2023-01-19T13:12:14.793Z,20.53
2023-01-19T13:14:45.036Z,20.54
2023-01-19T13:17:35.991Z,20.52
2023-01-19T13:20:22.790Z,20.50
2023-01-19T13:23:21.068Z,20.46
2023-01-19T13:25:52.962Z,20.45
2023-01-19T13:28:30.988Z,20.44
2023-01-19T13:31:00.260Z,20.43
2023-01-19T13:33:40.800Z,20.44
2023-01-19T13:36:20.290Z,20.45
2023-01-19T13:38:56.043Z,20.47
2023-01-19T13:41:35.348Z,20.50
2023-01-19T13:44:23.803Z,20.53
2023-01-19T13:46:52.104Z,20.55
2023-01-19T13:49:28.258Z,20.55
2023-01-19T13:52:16.740Z,20.54
2023-01-19T13:54:53.634Z,20.51
2023-01-19T13:57:40.684Z,20.40
2023-01-19T14:00:11.169Z,20.36
2023-01-19T14:02:51.850Z,20.35
2023-01-19T14:05:39.934Z,20.37
2023-01-19T14:08:09.901Z,20.38
2023-01-19T14:10:48.130Z,20.41
2023-01-19T14:13:36.033Z,20.41
2023-01-19T14:16:20.616Z,20.43
2023-01-19T14:18:59.760Z,20.45
2023-01-19T14:21:43.139Z,20.46
2023-01-19T14:24:22.935Z,20.47
2023-01-19T14:27:25.081Z,20.48
2023-01-19T14:29:53.049Z,20.46
2023-01-19T14:32:24.428Z,20.50
2023-01-19T14:34:57.293Z,20.49
2023-01-19T14:37:32.748Z,20.49
2023-01-19T14:40:17.423Z,20.47
2023-01-19T14:42:53.255Z,20.45
2023-01-19T14:45:30.336Z,20.45
2023-01-19T14:48:18.830Z,20.46
2023-01-19T14:51:02.369Z,20.47
2023-01-19T14:53:36.918Z,20.47
2023-01-19T14:56:07.316Z,20.47
2023-01-19T14:58:40.793Z,20.46
2023-01-19T15:01:07.854Z,20.46
2023-01-19T15:03:45.826Z,20.44
2023-01-19T15:06:19.613Z,20.43
2023-01-19T15:08:50.907Z,20.42
2023-01-19T15:11:26.889Z,20.39
2023-01-19T15:13:57.891Z,20.35
2023-01-19T15:16:30.452Z,20.35
2023-01-19T15:19:00.525Z,20.36
2023-01-19T15:21:33.373Z,20.38
2023-01-19T15:24:00.785Z,20.39
2023-01-19T15:26:30.502Z,20.39
2023-01-19T15:29:01.180Z,20.37
2023-01-19T15:31:28.147Z,20.38
2023-01-19T15:34:04.079Z,20.37
2023-01-19T15:36:33.623Z,20.36
2023-01-19T15:39:00.787Z,20.35
2023-01-19T15:41:32.943Z,20.34
2023-01-19T15:44:06.827Z,20.31
2023-01-19T15:46:37.488Z,20.32
2023-01-19T15:49:07.931Z,20.32
2023-01-19T15:51:41.139Z,20.31
2023-01-19T15:54:14.291Z,20.29
2023-01-19T15:56:44.853Z,20.28
2023-01-19T15:59:15.322Z,20.29
2023-01-19T16:01:48.709Z,20.29
2023-01-19T16:04:21.895Z,20.29
2023-01-19T16:06:49.086Z,20.28
2023-01-19T16:09:21.841Z,20.29
2023-01-19T16:11:52.431Z,20.27
2023-01-19T16:14:25.562Z,20.26
2023-01-19T16:16:55.137Z,20.26
2023-01-19T16:19:28.219Z,20.23
2023-01-19T16:21:55.086Z,20.22
2023-01-19T16:24:24.558Z,20.22
2023-01-19T16:26:54.824Z,20.23
2023-01-19T16:29:22.154Z,20.21
2023-01-19T16:31:49.660Z,20.20
2023-01-19T16:34:19.812Z,20.19
2023-01-19T16:36:46.682Z,20.17
2023-01-19T16:39:15.873Z,20.16
2023-01-19T16:41:43.984Z,20.14
2023-01-19T16:44:12.920Z,20.13
2023-01-19T16:46:42.123Z,20.11
2023-01-19T16:49:20.730Z,20.03
2023-01-19T16:51:48.985Z,20.03
2023-01-19T16:54:22.284Z,20.01
2023-01-19T16:56:53.379Z,20.00
2023-01-19T16:59:24.128Z,20.01
2023-01-19T17:01:58.136Z,19.99
2023-01-19T17:04:28.737Z,19.98
2023-01-19T17:07:02.504Z,19.97
2023-01-19T17:09:35.387Z,19.97
2023-01-19T17:12:08.511Z,19.97
2023-01-19T17:14:35.495Z,19.97
2023-01-19T17:17:09.081Z,19.98
2023-01-19T17:19:40.067Z,20.01
2023-01-19T17:22:10.385Z,20.01
2023-01-19T17:24:42.975Z,20.03
2023-01-19T17:27:11.182Z,20.03
2023-01-19T17:29:44.381Z,20.06
2023-01-19T17:32:18.513Z,20.07
2023-01-19T17:34:49.655Z,20.07
2023-01-19T17:37:26.157Z,20.10
2023-01-19T17:39:56.260Z,20.11
2023-01-19T17:42:26.959Z,20.13
2023-01-19T17:44:59.625Z,20.15
2023-01-19T17:47:29.990Z,20.15
2023-01-19T17:50:00.502Z,20.14
2023-01-19T17:52:34.429Z,20.12
2023-01-19T17:55:04.580Z,20.11
2023-01-19T17:57:38.069Z,20.11
2023-01-19T18:00:09.886Z,20.11
2023-01-19T18:02:40.509Z,20.11
2023-01-19T18:05:11.749Z,20.10
2023-01-19T18:07:43.207Z,20.10
2023-01-19T18:10:11.648Z,20.09
2023-01-19T18:12:39.154Z,20.10
2023-01-19T18:15:10.983Z,20.11
2023-01-19T18:17:38.280Z,20.14
2023-01-19T18:20:06.862Z,20.18
2023-01-19T18:22:37.371Z,20.20
2023-01-19T18:25:04.578Z,20.22
2023-01-19T18:27:34.905Z,20.24
2023-01-19T18:30:01.862Z,20.26
2023-01-19T18:32:29.116Z,20.26
2023-01-19T18:34:56.204Z,20.28
2023-01-19T18:37:25.603Z,20.29
2023-01-19T18:39:52.665Z,20.30
2023-01-19T18:42:19.591Z,20.32
2023-01-19T18:44:57.269Z,20.33
2023-01-19T18:47:24.366Z,20.34
2023-01-19T18:49:51.167Z,20.36
2023-01-19T18:52:18.515Z,20.38
2023-01-19T18:54:45.466Z,20.38
2023-01-19T18:57:12.384Z,20.38
2023-01-19T18:59:42.577Z,20.39
2023-01-19T19:02:12.010Z,20.39
2023-01-19T19:04:42.414Z,20.40
2023-01-19T19:07:12.556Z,20.41
2023-01-19T19:09:39.498Z,20.42
2023-01-19T19:12:09.760Z,20.46
2023-01-19T19:14:36.697Z,20.51
2023-01-19T19:17:04.079Z,20.54
2023-01-19T19:19:31.057Z,20.61
2023-01-19T19:21:58.167Z,20.63
2023-01-19T19:24:32.587Z,20.67
2023-01-19T19:26:59.481Z,20.72
2023-01-19T19:29:29.646Z,20.76
2023-01-19T19:31:56.615Z,20.82
2023-01-19T19:34:23.398Z,20.88
2023-01-19T19:36:50.417Z,20.91
2023-01-19T19:39:17.320Z,20.96
2023-01-19T19:41:46.729Z,20.98
2023-01-19T19:44:13.446Z,21.02
2023-01-19T19:46:40.132Z,21.04
2023-01-19T19:49:07.718Z,21.05
2023-01-19T19:51:34.987Z,21.07
2023-01-19T19:54:04.644Z,21.09
2023-01-19T19:56:32.279Z,21.12
2023-01-19T19:58:59.725Z,21.13
2023-01-19T20:01:32.281Z,21.15
2023-01-19T20:04:08.599Z,21.16
2023-01-19T20:06:36.142Z,21.17
2023-01-19T20:09:02.858Z,21.17
2023-01-19T20:11:29.619Z,21.18
2023-01-19T20:13:56.282Z,21.17
2023-01-19T20:16:23.843Z,21.18
2023-01-19T20:18:54.613Z,21.20
2023-01-19T20:21:27.388Z,21.20
2023-01-19T20:23:56.491Z,21.20
2023-01-19T20:26:26.428Z,21.20
2023-01-19T20:28:54.632Z,21.21
2023-01-19T20:31:26.125Z,21.22
2023-01-19T20:33:53.706Z,21.23
2023-01-19T20:36:20.707Z,21.23
2023-01-19T20:38:47.739Z,21.24
2023-01-19T20:41:14.474Z,21.23
2023-01-19T20:43:41.768Z,21.21
2023-01-19T20:46:09.264Z,21.23
2023-01-19T20:48:37.000Z,21.22
2023-01-19T20:51:09.512Z,21.18
2023-01-19T20:53:41.094Z,21.21
2023-01-19T20:56:11.644Z,21.18
2023-01-19T20:58:39.258Z,21.17
2023-01-19T21:01:17.598Z,21.17
2023-01-19T21:03:44.903Z,21.16
2023-01-19T21:06:12.257Z,21.16
2023-01-19T21:08:40.536Z,21.17
2023-01-19T21:11:11.025Z,21.15
2023-01-19T21:13:37.705Z,21.13
2023-01-19T21:16:05.384Z,21.15
2023-01-19T21:18:32.888Z,21.15
2023-01-19T21:21:02.772Z,21.15
2023-01-19T21:23:31.008Z,21.12
2023-01-19T21:26:03.096Z,21.14
2023-01-19T21:28:31.771Z,21.13
2023-01-19T21:30:58.426Z,21.13
2023-01-19T21:33:25.237Z,21.14
2023-01-19T21:35:53.816Z,21.13
2023-01-19T21:38:21.491Z,21.14
2023-01-19T21:40:48.370Z,21.15
2023-01-19T21:43:15.286Z,21.15
2023-01-19T21:45:45.913Z,21.16
2023-01-19T21:48:12.788Z,21.16
2023-01-19T21:50:43.086Z,21.17
2023-01-19T21:53:15.483Z,21.16
2023-01-19T21:55:46.424Z,21.16
2023-01-19T21:58:14.396Z,21.11
2023-01-19T22:00:47.715Z,21.09
2023-01-19T22:03:20.649Z,21.05
2023-01-19T22:05:53.160Z,21.02
2023-01-19T22:08:23.273Z,21.01
2023-01-19T22:10:50.172Z,20.94
2023-01-19T22:13:25.980Z,20.88
2023-01-19T22:16:02.733Z,20.80
2023-01-19T22:18:31.186Z,20.77
2023-01-19T22:21:08.897Z,20.75
2023-01-19T22:23:36.319Z,20.72
2023-01-19T22:26:10.491Z,20.68
2023-01-19T22:28:45.121Z,20.61
2023-01-19T22:31:23.257Z,20.63
2023-01-19T22:34:30.938Z,20.60
2023-01-19T22:37:04.112Z,20.52
2023-01-19T22:39:49.634Z,20.52
2023-01-19T22:42:19.533Z,20.46
2023-01-19T22:44:46.326Z,20.44
2023-01-19T22:47:13.175Z,20.42
2023-01-19T22:49:39.814Z,20.41
2023-01-19T22:52:12.188Z,20.37
2023-01-19T22:54:43.594Z,20.37
2023-01-19T22:57:10.374Z,20.33
2023-01-19T22:59:37.433Z,20.32
2023-01-19T23:02:09.715Z,20.28
2023-01-19T23:04:59.471Z,20.26
2023-01-19T23:07:29.720Z,20.25
2023-01-19T23:10:04.704Z,20.24
2023-01-19T23:12:33.622Z,20.24
2023-01-19T23:15:20.036Z,20.21
2023-01-19T23:18:25.656Z,20.18
2023-01-19T23:21:32.595Z,20.16
2023-01-19T23:24:02.701Z,20.15
2023-01-19T23:26:32.559Z,20.12
2023-01-19T23:29:39.134Z,20.11
2023-01-19T23:32:27.104Z,20.08
2023-01-19T23:34:59.669Z,20.08
2023-01-19T23:37:46.204Z,20.06
2023-01-19T23:40:16.662Z,20.06
2023-01-19T23:42:45.938Z,20.07
2023-01-19T23:45:19.672Z,20.04
2023-01-19T23:50:54.504Z,20.02
2023-01-19T23:56:43.254Z,19.97
2023-01-19T23:59:15.863Z,19.96
